aviador You're here:

UKDR Decoded Metar

KRIVYY RIH in UKRAINE
Report Time2017-08-20 19:00:00
UTC Time2017-08-20 19:13:57
Flight Rules vfr VFR
Wind050° at 4 kt
W.Decomp.*RWY 36: 2.8 kt HW 2.9 kt RCW
W.Rank050° ranks 2
Current wind is below 050° avg. (7.0)
Visibility9999 m
Phenomena:N/A
Clouds:N/A
Expected CloudBase > 8,800 ft AGL from Temp-Dew spread
CeilingNone
Temp26°C (ISA +12)
Dew Point04°C (24% RH)
AAT23.2°C
QNH1014 hPa
Density Alt1,850 ft
Elevation407 ft
Report Wrong Elevation
Raw Report
UKDR 201900Z 05002MPS 360V090 CAVOK 26/04 Q1014 R36/09//70
NOSIG=

Extra information for UKDR:More info

Metar Taf Metar & Taf Last 4 Metars F.Rules Stats Wind Profile Meteogram Temp Stats Airport Information Weather charts Add Link Nearby VenuesMetar ALERT Operation Metar Decoded Social comments